KSWW

Avenger Field Airport

Sweetwater, Texas, USA
METAR KSWW 182215Z AUTO 09006KT 10SM CLR 30/20 A2997 RMK AO2 LTG DSNT S THRU W T03040201
Observed Flight Rules
Jun-18 @ 22:15 UTC (33 minutes ago) Visual Flight Rules
Wind Visibility Clouds
90° at 6 knots 10 miles
  • Clear skies
Temperatures Readings
Current 30°C / 86°F
Dewpoint 20°C / 68°F
Humidity 55%
Altimeter 29.97" Hg
Pressure 1015 hPa
Elevation 727
METAR KSWW 182215Z AUTO 09006KT 10SM CLR 30/20 A2997 RMK AO2 LTG DSNT S THRU W T03040201
Observed Flight Rules
Jun-18 @ 22:15 UTC
(33 minutes ago)
VFR
Wind Visibility
90° at 6 knots 10 miles
Clouds
  • Clear skies
Temperature Dewpoint
30°C / 86°F 20°C / 68°F
Humidity Altimeter Pressure
55% 29.97" Hg 1015 hPa